Dades meteomassalio
Diari Summary for Octubre 11, 2018 Units:  Metric    English   Both
« Previous Day
Next Day »
Diari Semanal Mensual Anual Personalitzat
  Maxima: Minima: Mijana:
Temperatura: -17.8 °C -13.8 °C -8.9 °C
Rosada: -17.8 °C -14.6 °C -12 °C
Humitat: Humidity % 43 % 72 %
Velocitat del vent: 0 km/h 0 km/h 4 km/h
Racha vent: 0 km/h - -
Vent:- - SSE
Pressio: 0 hPa 34303.6 hPa -
Pluja: 0 mm    
Historical Graphs
 
 
Tabular Data for Octubre 11, 2018
Time Temperature Dew Point Pressure Wind Wind Speed Wind Gust Humidity Rainfall Rate (Hourly) solar Conditions
-17.8 °C -17.8 °C 0 hPa Calm     Humidity % 0 mm SolarRadiationWatts/m^2 W/m2 Conditions
00:04 -11.6 °C -12.9 °C 34303.6 hPa Calm     86 % 0 mm 0.00 W/m2 RA
00:09 -11.6 °C -12.9 °C 34303.6 hPa Calm     86 % 0 mm 0.00 W/m2 CLR
00:14 -11.6 °C -12.9 °C 34303.6 hPa Calm     86 % 0 mm 0.00 W/m2 CLR
00:19 -11.6 °C -12.9 °C 34303.6 hPa Calm     86 % 0 mm 0.00 W/m2 CLR
00:24 -11.6 °C -12.9 °C 34307 hPa Calm     86 % 0 mm 0.00 W/m2 CLR
00:29 -11.6 °C -12.7 °C 34310.3 hPa Calm     87 % 0 mm 0.00 W/m2 CLR
00:34 -11.6 °C -12.9 °C 34310.3 hPa Calm     86 % 0 mm 0.00 W/m2 CLR
00:39 -11.6 °C -12.9 °C 34313.7 hPa Calm     86 % 0 mm 0.00 W/m2 CLR
00:44 -11.6 °C -12.7 °C 34313.7 hPa Calm     87 % 0 mm 0.00 W/m2 CLR
00:49 -11.9 °C -13.1 °C 34313.7 hPa Calm     87 % 0 mm 0.00 W/m2 CLR
00:54 -11.9 °C -13.1 °C 34313.7 hPa Calm     87 % 0 mm 0.00 W/m2 CLR
00:59 -11.9 °C -13.1 °C 34313.7 hPa Calm     87 % 0 mm 0.00 W/m2 CLR
01:04 -11.9 °C -12.9 °C 34313.7 hPa Calm     88 % 0 mm 0.00 W/m2 CLR
01:09 -12.2 °C -13.4 °C 34317.1 hPa Calm     87 % 0 mm 0.00 W/m2 CLR
01:14 -12.2 °C -13.4 °C 34313.7 hPa Calm     87 % 0 mm 0.00 W/m2 CLR
01:19 -12.2 °C -13.4 °C 34313.7 hPa Calm     87 % 0 mm 0.00 W/m2 CLR
01:24 -12.2 °C -13.4 °C 34313.7 hPa Calm     87 % 0 mm 0.00 W/m2 CLR
01:29 -12.2 °C -13.4 °C 34317.1 hPa Calm     87 % 0 mm 0.00 W/m2 CLR
01:34 -12.2 °C -13.3 °C 34317.1 hPa Calm     88 % 0 mm 0.00 W/m2 CLR
01:39 -12.2 °C -13.3 °C 34320.5 hPa Calm     88 % 0 mm 0.00 W/m2 CLR
01:44 -12.2 °C -13.4 °C 34317.1 hPa Calm     87 % 0 mm 0.00 W/m2 CLR
01:49 -12.2 °C -13.4 °C 34320.5 hPa Calm     87 % 0 mm 0.00 W/m2 CLR
01:54 -12.6 °C -13.6 °C 34320.5 hPa Calm     88 % 0 mm 0.00 W/m2 CLR
01:59 -12.6 °C -13.6 °C 34323.9 hPa Calm     88 % 0 mm 0.00 W/m2 CLR
02:04 -12.6 °C -13.6 °C 34320.5 hPa Calm     88 % 0 mm 0.00 W/m2 CLR
02:09 -12.2 °C -13.3 °C 34320.5 hPa Calm     88 % 0 mm 0.00 W/m2 CLR
02:14 -12.2 °C -13.3 °C 34320.5 hPa Calm     88 % 0 mm 0.00 W/m2 CLR
02:19 -12.6 °C -13.6 °C 34320.5 hPa Calm     88 % 0 mm 0.00 W/m2 CLR
02:24 -12.6 °C -13.5 °C 34320.5 hPa Calm     89 % 0 mm 0.00 W/m2 CLR
02:29 -12.6 °C -13.5 °C 34320.5 hPa Calm     89 % 0 mm 0.00 W/m2 CLR
02:34 -12.6 °C -13.5 °C 34317.1 hPa Calm     89 % 0 mm 0.00 W/m2 CLR
02:39 -12.6 °C -13.5 °C 34317.1 hPa Calm     89 % 0 mm 0.00 W/m2 CLR
02:44 -12.6 °C -13.5 °C 34317.1 hPa Calm     89 % 0 mm 0.00 W/m2 CLR
02:49 -12.6 °C -13.5 °C 34317.1 hPa Calm     89 % 0 mm 0.00 W/m2 CLR
02:54 -12.6 °C -13.5 °C 34317.1 hPa Calm     89 % 0 mm 0.00 W/m2 CLR
02:59 -12.8 °C -13.8 °C 34320.5 hPa Calm     89 % 0 mm 0.00 W/m2 CLR
03:04 -12.8 °C -13.8 °C 34320.5 hPa Calm     89 % 0 mm 0.00 W/m2 CLR
03:09 -12.8 °C -13.8 °C 34320.5 hPa Calm     89 % 0 mm 0.00 W/m2 CLR
03:14 -12.8 °C -13.8 °C 34317.1 hPa Calm     89 % 0 mm 0.00 W/m2 CLR
03:19 -12.8 °C -13.8 °C 34317.1 hPa Calm     89 % 0 mm 0.00 W/m2 CLR
03:24 -12.8 °C -13.8 °C 34317.1 hPa Calm     89 % 0 mm 0.00 W/m2 CLR
03:29 -12.8 °C -13.8 °C 34317.1 hPa Calm     89 % 0 mm 0.00 W/m2 CLR
03:34 -12.8 °C -13.8 °C 34317.1 hPa Calm     89 % 0 mm 0.00 W/m2 CLR
03:39 -12.8 °C -13.8 °C 34317.1 hPa Calm     89 % 0 mm 0.00 W/m2 CLR
03:44 -12.8 °C -13.8 °C 34313.7 hPa Calm     89 % 0 mm 0.00 W/m2 CLR
03:49 -12.8 °C -13.8 °C 34313.7 hPa Calm     89 % 0 mm 0.00 W/m2 CLR
03:54 -12.8 °C -13.8 °C 34313.7 hPa Calm     89 % 0 mm 0.00 W/m2 CLR
03:59 -12.8 °C -13.8 °C 34313.7 hPa Calm     89 % 0 mm 0.00 W/m2 CLR
04:04 -12.8 °C -13.8 °C 34313.7 hPa Calm     89 % 0 mm 0.00 W/m2 CLR
04:09 -12.8 °C -13.8 °C 34313.7 hPa Calm     89 % 0 mm 0.00 W/m2 CLR
04:14 -12.8 °C -13.8 °C 34313.7 hPa Calm     89 % 0 mm 0.00 W/m2 CLR
04:19 -12.8 °C -13.8 °C 34310.3 hPa Calm     89 % 0 mm 0.00 W/m2 CLR
04:24 -12.8 °C -13.8 °C 34310.3 hPa Calm     89 % 0 mm 0.00 W/m2 CLR
04:29 -12.8 °C -13.8 °C 34310.3 hPa Calm     89 % 0 mm 0.00 W/m2 CLR
04:34 -13.2 °C -14 °C 34310.3 hPa Calm     90 % 0 mm 0.00 W/m2 CLR
04:39 -13.2 °C -14.1 °C 34310.3 hPa Calm     89 % 0 mm 0.00 W/m2 CLR
04:44 -12.8 °C -13.8 °C 34313.7 hPa Calm     89 % 0 mm 0.00 W/m2 CLR
04:49 -12.8 °C -13.8 °C 34313.7 hPa Calm     89 % 0 mm 0.00 W/m2 CLR
04:54 -12.8 °C -13.7 °C 34313.7 hPa Calm     90 % 0 mm 0.00 W/m2 CLR
04:59 -12.8 °C -13.7 °C 34317.1 hPa Calm     90 % 0 mm 0.00 W/m2 CLR
05:04 -12.8 °C -13.7 °C 34317.1 hPa Calm     90 % 0 mm 0.00 W/m2 CLR
05:09 -12.8 °C -13.6 °C 34313.7 hPa Calm     91 % 0 mm 0.00 W/m2 CLR
05:14 -12.8 °C -13.6 °C 34313.7 hPa Calm     91 % 0 mm 0.00 W/m2 CLR
05:19 -12.8 °C -13.6 °C 34317.1 hPa Calm     91 % 0 mm 0.00 W/m2 CLR
05:24 -12.8 °C -13.7 °C 34313.7 hPa Calm     90 % 0 mm 0.00 W/m2 CLR
05:29 -12.8 °C -13.7 °C 34313.7 hPa Calm     90 % 0 mm 0.00 W/m2 CLR
05:34 -12.8 °C -13.7 °C 34310.3 hPa Calm     90 % 0 mm 0.00 W/m2 CLR
05:39 -12.8 °C -13.7 °C 34313.7 hPa Calm     90 % 0 mm 0.00 W/m2 CLR
05:44 -12.8 °C -13.7 °C 34313.7 hPa Calm     90 % 0 mm 0.00 W/m2 CLR
05:49 -12.8 °C -13.7 °C 34313.7 hPa Calm     90 % 0 mm 0.00 W/m2 CLR
05:54 -12.8 °C -13.6 °C 34313.7 hPa Calm     91 % 0 mm 0.00 W/m2 CLR
05:59 -12.8 °C -13.7 °C 34313.7 hPa Calm     90 % 0 mm 0.00 W/m2 CLR
06:04 -12.8 °C -13.7 °C 34313.7 hPa Calm     90 % 0 mm 0.00 W/m2 CLR
06:09 -13.2 °C -14 °C 34317.1 hPa Calm     90 % 0 mm 0.00 W/m2 CLR
06:14 -13.2 °C -14 °C 34317.1 hPa Calm     90 % 0 mm 0.00 W/m2 CLR
06:19 -13.2 °C -14 °C 34317.1 hPa Calm     90 % 0 mm 0.00 W/m2 CLR
06:24 -13.2 °C -14 °C 34317.1 hPa Calm     90 % 0 mm 0.00 W/m2 CLR
06:29 -13.2 °C -13.9 °C 34320.5 hPa Calm     91 % 0 mm 0.00 W/m2 CLR
06:34 -13.2 °C -13.9 °C 34323.9 hPa Calm     91 % 0 mm 0.00 W/m2 CLR
06:39 -13.2 °C -13.9 °C 34327.3 hPa Calm     91 % 0 mm 0.00 W/m2 CLR
06:44 -13.2 °C -13.9 °C 34330.7 hPa Calm     91 % 0 mm 0.00 W/m2 CLR
06:49 -13.2 °C -14 °C 34334 hPa Calm     90 % 0 mm 0.00 W/m2 CLR
06:54 -13.2 °C -13.9 °C 34334 hPa Calm     91 % 0 mm 0.00 W/m2 CLR
06:59 -13.2 °C -14 °C 34334 hPa Calm     90 % 0 mm 0.00 W/m2 CLR
07:04 -13.2 °C -14 °C 34334 hPa Calm     90 % 0 mm 0.00 W/m2 CLR
07:09 -13.2 °C -13.9 °C 34334 hPa Calm     91 % 0 mm 0.00 W/m2 CLR
07:14 -13.2 °C -13.9 °C 34334 hPa Calm     91 % 0 mm 0.00 W/m2 CLR
07:19 -13.2 °C -13.9 °C 34337.4 hPa Calm     91 % 0 mm 0.00 W/m2 CLR
07:24 -13.2 °C -13.9 °C 34340.8 hPa Calm     91 % 0 mm 0.00 W/m2 CLR
07:29 -13.4 °C -14.3 °C 34340.8 hPa Calm     90 % 0 mm 0.00 W/m2 CLR
07:34 -13.4 °C -14.2 °C 34340.8 hPa Calm     91 % 0 mm 0.00 W/m2 CLR
07:39 -13.4 °C -14.2 °C 34344.2 hPa Calm     91 % 0 mm 0.00 W/m2 CLR
07:44 -13.4 °C -14.2 °C 34340.8 hPa Calm     91 % 0 mm 0.00 W/m2 CLR
07:49 -13.4 °C -14.2 °C 34340.8 hPa Calm     91 % 0 mm 0.00 W/m2 CLR
07:54 -13.4 °C -14.2 °C 34344.2 hPa Calm     91 % 0 mm 0.00 W/m2 CLR
07:59 -13.8 °C -14.6 °C 34344.2 hPa Calm     91 % 0 mm 0.00 W/m2 CLR
08:04 -13.8 °C -14.6 °C 34344.2 hPa Calm     91 % 0 mm 0.00 W/m2 OVC
08:09 -13.8 °C -14.6 °C 34344.2 hPa Calm     91 % 0 mm 0.00 W/m2 OVC
08:14 -13.4 °C -14.2 °C 34344.2 hPa Calm     91 % 0 mm 9.00 W/m2 BKN
08:19 -13.4 °C -14.2 °C 34347.6 hPa Calm     91 % 0 mm 12.00 W/m2 BKN
08:24 -13.2 °C -13.9 °C 34354.4 hPa Calm     91 % 0 mm 16.00 W/m2 BKN
08:29 -13.2 °C -13.9 °C 34354.4 hPa Calm     91 % 0 mm 23.00 W/m2 BKN
08:34 -13.2 °C -13.9 °C 34354.4 hPa Calm     91 % 0 mm 33.00 W/m2 BKN
08:39 -13.2 °C -13.9 °C 34357.7 hPa Calm     91 % 0 mm 37.00 W/m2 BKN
08:44 -13.2 °C -13.9 °C 34357.7 hPa Calm     91 % 0 mm 44.00 W/m2 BKN
08:49 -13.2 °C -13.9 °C 34364.5 hPa Calm     91 % 0 mm 60.00 W/m2 SCT
08:54 -13.2 °C -13.9 °C 34361.1 hPa Calm     91 % 0 mm 95.00 W/m2 CLR
08:59 -12.8 °C -13.6 °C 34364.5 hPa Calm     91 % 0 mm 102.00 W/m2 CLR
09:04 -12.8 °C -13.6 °C 34367.9 hPa Calm     91 % 0 mm 128.00 W/m2 CLR
09:09 -12.8 °C -13.6 °C 34367.9 hPa Calm     91 % 0 mm 146.00 W/m2 CLR
09:14 -12.2 °C -13.1 °C 34367.9 hPa Calm     90 % 0 mm 167.00 W/m2 CLR
09:19 -12.2 °C -13.2 °C 34371.3 hPa Calm     89 % 0 mm 188.00 W/m2 CLR
09:24 -11.9 °C -12.9 °C 34378.1 hPa Calm     89 % 0 mm 155.00 W/m2 CLR
09:29 -11.9 °C -12.9 °C 34381.4 hPa Calm     88 % 0 mm 229.00 W/m2 CLR
09:34 -11.6 °C -12.7 °C 34381.4 hPa Calm     87 % 0 mm 246.00 W/m2 CLR
09:39 -11.6 °C -12.9 °C 34381.4 hPa Calm     86 % 0 mm 278.00 W/m2 CLR
09:44 -11.3 °C -12.7 °C 34381.4 hPa Calm     85 % 0 mm 294.00 W/m2 CLR
09:49 -11.3 °C -12.7 °C 34384.8 hPa Calm     84 % 0 mm 306.00 W/m2 CLR
09:54 -11 °C -12.7 °C 34381.4 hPa Calm     82 % 0 mm 318.00 W/m2 CLR
09:59 -10.7 °C -12.4 °C 34384.8 hPa Calm     81 % 0 mm 257.00 W/m2 CLR
10:04 -10.7 °C -12.6 °C 34384.8 hPa Calm     80 % 0 mm 304.00 W/m2 CLR
10:09 -10.4 °C -12.6 °C 34384.8 hPa Calm     77 % 0 mm 338.00 W/m2 CLR
10:14 -9.8 °C -12.1 °C 34384.8 hPa Calm     76 % 0 mm 223.00 W/m2 CLR
10:19 -9.8 °C -12.2 °C 34384.8 hPa Calm     75 % 0 mm 230.00 W/m2 CLR
10:24 -9.4 °C -12 °C 34381.4 hPa Calm     74 % 0 mm 274.00 W/m2 CLR
10:29 -9.1 °C -11.8 °C 34384.8 hPa Calm     73 % 0 mm 250.00 W/m2 CLR
10:34 -9.1 °C -11.8 °C 34384.8 hPa Calm     73 % 0 mm 258.00 W/m2 CLR
10:39 -8.8 °C -11.8 °C 34384.8 hPa Calm     71 % 0 mm 281.00 W/m2 CLR
10:44 -8.5 °C -11.4 °C 34381.4 hPa Calm     71 % 0 mm 283.00 W/m2 CLR
10:49 -8.2 °C -11.4 °C 34381.4 hPa Calm     69 % 0 mm 213.00 W/m2 CLR
10:54 -8.2 °C -11.5 °C 34381.4 hPa Calm     68 % 0 mm 230.00 W/m2 CLR
10:59 -7.9 °C -11.3 °C 34381.4 hPa Calm     67 % 0 mm 207.00 W/m2 CLR
11:04 -7.9 °C -11.3 °C 34381.4 hPa Calm     67 % 0 mm 213.00 W/m2 CLR
11:09 -7.6 °C -11.1 °C 34381.4 hPa Calm     67 % 0 mm 244.00 W/m2 CLR
11:14 -7.6 °C -11.2 °C 34381.4 hPa Calm     66 % 0 mm 251.00 W/m2 CLR
11:19 -7.6 °C -11.3 °C 34378.1 hPa Calm     65 % 0 mm 207.00 W/m2 CLR
11:24 -7.6 °C -11.4 °C 34374.7 hPa Calm     64 % 0 mm 204.00 W/m2 CLR
11:29 -7.6 °C -11.6 °C 34374.7 hPa Calm     63 % 0 mm 216.00 W/m2 CLR
11:34 -7.3 °C -11.2 °C 34374.7 hPa Calm     64 % 0 mm 223.00 W/m2 CLR
11:39 -7.3 °C -11.2 °C 34374.7 hPa Calm     64 % 0 mm 221.00 W/m2 CLR
11:44 -7.3 °C -11 °C 34374.7 hPa Calm     65 % 0 mm 276.00 W/m2 CLR
11:49 -7 °C -10.9 °C 34374.7 hPa Calm     64 % 0 mm 283.00 W/m2 CLR
11:54 -7 °C -11 °C 34374.7 hPa Calm     63 % 0 mm 243.00 W/m2 CLR
11:59 -6.7 °C -10.8 °C 34374.7 hPa Calm     62 % 0 mm 381.00 W/m2 CLR
12:04 -6.7 °C -10.8 °C 34371.3 hPa Calm     62 % 0 mm 457.00 W/m2 CLR
12:09 -6.3 °C -10.6 °C 34367.9 hPa Calm     62 % 0 mm 680.00 W/m2 CLR
12:14 -6.1 °C -10.4 °C 34364.5 hPa Calm     61 % 0 mm 659.00 W/m2 CLR
12:19 -5.4 °C -9.9 °C 34364.5 hPa Calm     60 % 0 mm 601.00 W/m2 CLR
12:24 -5.1 °C -9.7 °C 34364.5 hPa Calm     60 % 0 mm 608.00 W/m2 CLR
12:29 -5.4 °C -9.9 °C 34361.1 hPa Calm     60 % 0 mm 650.00 W/m2 CLR
12:34 -5.1 °C -9.8 °C 34364.5 hPa Calm     59 % 0 mm 643.00 W/m2 CLR
12:39 -4.8 °C -9.8 °C 34361.1 hPa East 9 km/h 1.3 km/h 57 % 0 mm 640.00 W/m2 CLR
12:44 -4.5 °C -9.8 °C 34364.5 hPa East 6 km/h 5 km/h 55 % 0 mm 642.00 W/m2 CLR
12:49 -4.2 °C -9.7 °C 34361.1 hPa NE 17.9 km/h 1 km/h 54 % 0 mm 645.00 W/m2 CLR
12:54 -4.2 °C -10.2 °C 34357.7 hPa Calm     51 % 0 mm 649.00 W/m2 CLR
12:59 -3.9 °C -9.9 °C 34354.4 hPa ESE 9 km/h 1 km/h 51 % 0 mm 652.00 W/m2 CLR
13:04 -3.9 °C -10.4 °C 34354.4 hPa East 9 km/h   48 % 0 mm 657.00 W/m2 CLR
13:09 -3.9 °C -10.4 °C 34354.4 hPa ENE 23.8 km/h 15.6 km/h 48 % 0 mm 666.00 W/m2 CLR
13:14 -3.9 °C -10.4 °C 34354.4 hPa ENE 20.9 km/h 18.8 km/h 48 % 0 mm 671.00 W/m2 CLR
13:19 -3.9 °C -10.4 °C 34354.4 hPa ENE 15 km/h 12.2 km/h 48 % 0 mm 677.00 W/m2 CLR
13:24 -3.6 °C -10.3 °C 34347.6 hPa East 20.9 km/h 6 km/h 47 % 0 mm 680.00 W/m2 CLR
13:29 -3.6 °C -10.5 °C 34344.2 hPa East 9 km/h 6 km/h 46 % 0 mm 689.00 W/m2 CLR
13:34 -3.3 °C -10.2 °C 34344.2 hPa East 7.7 km/h 2.6 km/h 46 % 0 mm 700.00 W/m2 CLR
13:39 -3.6 °C -10.7 °C 34344.2 hPa ENE 9 km/h 1.6 km/h 45 % 0 mm 703.00 W/m2 CLR
13:44 -3.3 °C -10.4 °C 34344.2 hPa East 20.9 km/h 9.7 km/h 45 % 0 mm 712.00 W/m2 CLR
13:49 -3.3 °C -10.2 °C 34344.2 hPa NE 9 km/h 5.5 km/h 46 % 0 mm 724.00 W/m2 CLR
13:54 -3.6 °C -10.7 °C 34340.8 hPa ESE 23.8 km/h 12.2 km/h 45 % 0 mm 719.00 W/m2 CLR
13:59 -3.6 °C -10.5 °C 34337.4 hPa East 9 km/h 2.1 km/h 46 % 0 mm 617.00 W/m2 CLR
14:04 -3.3 °C -10.6 °C 34337.4 hPa SE 26.9 km/h 16.6 km/h 44 % 0 mm 682.00 W/m2 CLR
14:09 -3.3 °C -10.6 °C 34334 hPa SE 29.8 km/h 16.1 km/h 44 % 0 mm 691.00 W/m2 CLR
14:14 -3.3 °C -10.8 °C 34334 hPa SE 28.5 km/h 23.3 km/h 43 % 0 mm 86.00 W/m2 CLR
14:19 -3.3 °C -10.8 °C 34330.7 hPa SSE 29.8 km/h 19.6 km/h 43 % 0 mm 582.00 W/m2 CLR
14:24 -2.9 °C -10.5 °C 34334 hPa SE 26.9 km/h 19.5 km/h 43 % 0 mm 652.00 W/m2 CLR
14:29 -2.9 °C -10.5 °C 34334 hPa SSE 41.7 km/h 21.2 km/h 43 % 0 mm 631.00 W/m2 CLR
14:34 -2.9 °C -10.5 °C 34330.7 hPa East 9 km/h 1 km/h 43 % 0 mm 693.00 W/m2 CLR
14:39 -2.9 °C -10.5 °C 34330.7 hPa SSE 35.7 km/h 24.8 km/h 43 % 0 mm 642.00 W/m2 CLR
14:44 -3.3 °C -10.6 °C 34330.7 hPa South 20.9 km/h 13.5 km/h 44 % 0 mm 680.00 W/m2 CLR
14:49 -2.9 °C -10.3 °C 34334 hPa SE 26.9 km/h 18.7 km/h 44 % 0 mm 181.00 W/m2 CLR
14:54 -3.6 °C -10.7 °C 34334 hPa SE 29.8 km/h 17.4 km/h 45 % 0 mm 246.00 W/m2 CLR
14:59 -3.9 °C -10.6 °C 34330.7 hPa SE 26.9 km/h 10.6 km/h 47 % 0 mm 721.00 W/m2 CLR
15:04 -3.6 °C -10.2 °C 34334 hPa East 15 km/h 9 km/h 48 % 0 mm 485.00 W/m2 CLR
15:09 -3.6 °C -10.3 °C 34334 hPa SSE 29.8 km/h 20 km/h 47 % 0 mm 302.00 W/m2 CLR
15:14 -3.6 °C -10.2 °C 34334 hPa SE 26.9 km/h 19.2 km/h 48 % 0 mm 554.00 W/m2 CLR
15:19 -3.6 °C -10.2 °C 34334 hPa SSE 23.8 km/h 10.1 km/h 48 % 0 mm 204.00 W/m2 CLR
15:24 -3.9 °C -9.9 °C 34334 hPa East 15 km/h 6.3 km/h 51 % 0 mm 171.00 W/m2 CLR
15:29 -3.9 °C -9.9 °C 34337.4 hPa ESE 23.8 km/h 9.3 km/h 51 % 0 mm 186.00 W/m2 CLR
15:34 -3.9 °C -9.8 °C 34334 hPa ESE 11.9 km/h 8.2 km/h 52 % 0 mm 209.00 W/m2 CLR
15:39 -3.9 °C -9.8 °C 34337.4 hPa East 20.9 km/h 3.7 km/h 52 % 0 mm 339.00 W/m2 CLR
15:44 -3.6 °C -9.5 °C 34340.8 hPa ESE 20.9 km/h 8.2 km/h 52 % 0 mm 295.00 W/m2 CLR
15:49 -3.6 °C -9.5 °C 34340.8 hPa SSE 17.9 km/h 13.5 km/h 52 % 0 mm 236.00 W/m2 CLR
15:54 -3.6 °C -9.3 °C 34337.4 hPa SSE 9 km/h 1.3 km/h 53 % 0 mm 227.00 W/m2 CLR
15:59 -3.6 °C -9.5 °C 34334 hPa Calm     52 % 0 mm 227.00 W/m2 CLR
16:04 -3.6 °C -9.5 °C 34337.4 hPa SSE 3.1 km/h 6.3 km/h 52 % 0 mm 199.00 W/m2 CLR
16:09 -3.6 °C -9.5 °C 34340.8 hPa SE 11.9 km/h 1.8 km/h 52 % 0 mm 197.00 W/m2 CLR
16:14 -3.6 °C -9.5 °C 34337.4 hPa South 20.9 km/h 14.2 km/h 52 % 0 mm 204.00 W/m2 CLR
16:19 -3.6 °C -9.5 °C 34337.4 hPa SSE 29.8 km/h 20.8 km/h 52 % 0 mm 255.00 W/m2 CLR
16:24 -3.6 °C -9.6 °C 34337.4 hPa SW 23.8 km/h 3.1 km/h 51 % 0 mm 403.00 W/m2 CLR
16:29 -3.6 °C -9.6 °C 34337.4 hPa SW 18.2 km/h 8 km/h 51 % 0 mm 186.00 W/m2 CLR
16:34 -3.6 °C -9.6 °C 34337.4 hPa Calm   3.4 km/h 51 % 0 mm 172.00 W/m2 CLR
16:39 -3.6 °C -9.3 °C 34337.4 hPa South 26.9 km/h 23.3 km/h 53 % 0 mm 178.00 W/m2 CLR
16:44 -3.9 °C -9.1 °C 34334 hPa South 17.9 km/h 12.4 km/h 56 % 0 mm 200.00 W/m2 CLR
16:49 -4.2 °C -9.1 °C 34334 hPa SSE 9 km/h 5.6 km/h 58 % 0 mm 236.00 W/m2 CLR
16:54 -4.2 °C -9.2 °C 34340.8 hPa South 11.9 km/h 12.7 km/h 57 % 0 mm 269.00 W/m2 CLR
16:59 -4.2 °C -9.2 °C 34347.6 hPa SSE 9 km/h 2.9 km/h 57 % 0 mm 237.00 W/m2 CLR
17:04 -4.2 °C -9.2 °C 34347.6 hPa Calm   0.5 km/h 57 % 0 mm 234.00 W/m2 CLR
17:09 -4.2 °C -9.2 °C 34351 hPa Calm     57 % 0 mm 195.00 W/m2 CLR
17:14 -3.9 °C -9.1 °C 34354.4 hPa Calm     56 % 0 mm 172.00 W/m2 CLR
17:19 -3.9 °C -9.1 °C 34354.4 hPa Calm     56 % 0 mm 155.00 W/m2 CLR
17:24 -3.9 °C -9.1 °C 34354.4 hPa Calm     56 % 0 mm 113.00 W/m2 CLR
17:29 -4.2 °C -9.9 °C 34361.1 hPa Calm     53 % 0 mm 90.00 W/m2 CLR
17:34 -4.2 °C -10.5 °C 34361.1 hPa Calm     49 % 0 mm 90.00 W/m2 CLR
17:39 -4.2 °C -10.7 °C 34364.5 hPa West 12.9 km/h 4.7 km/h 48 % 0 mm 128.00 W/m2 CLR
17:44 -4.2 °C -10.7 °C 34361.1 hPa West 17.9 km/h 10.9 km/h 48 % 0 mm 153.00 W/m2 CLR
17:49 -3.9 °C -10.4 °C 34364.5 hPa WNW 9 km/h 4.2 km/h 48 % 0 mm 156.00 W/m2 CLR
17:54 -3.9 °C -10.4 °C 34364.5 hPa West 9 km/h 3.4 km/h 48 % 0 mm 132.00 W/m2 CLR
17:59 -3.9 °C -10.4 °C 34364.5 hPa WNW 9 km/h 4.7 km/h 48 % 0 mm 90.00 W/m2 CLR
18:04 -3.9 °C -10.4 °C 34367.9 hPa West 9 km/h   48 % 0 mm 70.00 W/m2 CLR
18:09 -3.9 °C -10.4 °C 34367.9 hPa WNW 9 km/h 5.6 km/h 48 % 0 mm 79.00 W/m2 FEW
18:14 -3.9 °C -10.2 °C 34371.3 hPa Calm     49 % 0 mm 109.00 W/m2 FEW
18:19 -4.2 °C -10.2 °C 34374.7 hPa Calm     51 % 0 mm 207.00 W/m2 CLR
18:24 -3.9 °C -9.8 °C 34371.3 hPa SW 15 km/h 6.3 km/h 52 % 0 mm 151.00 W/m2 CLR
18:29 -3.9 °C -9.8 °C 34371.3 hPa SSW 9 km/h 10.6 km/h 52 % 0 mm 185.00 W/m2 CLR
18:34 -3.9 °C -9.8 °C 34374.7 hPa South 9 km/h   52 % 0 mm 132.00 W/m2 CLR
18:39 -3.9 °C -9.9 °C 34381.4 hPa Calm     51 % 0 mm 81.00 W/m2 CLR
18:44 -4.2 °C -10.1 °C 34384.8 hPa SSW 9 km/h 1 km/h 52 % 0 mm 53.00 W/m2 SCT
18:49 -4.2 °C -10.2 °C 34391.6 hPa SSW 9 km/h   51 % 0 mm 33.00 W/m2 BKN
18:54 -4.5 °C -10.3 °C 34391.6 hPa Calm     52 % 0 mm 25.00 W/m2 BKN
18:59 -4.5 °C -10.3 °C 34395 hPa Calm     52 % 0 mm 21.00 W/m2 BKN
19:04 -4.8 °C -10.6 °C 34395 hPa Calm     52 % 0 mm 23.00 W/m2 BKN
19:09 -5.1 °C -10.7 °C 34395 hPa Calm     53 % 0 mm 21.00 W/m2 BKN
19:14 -5.4 °C -10.9 °C 34395 hPa SW 15 km/h 12.4 km/h 54 % 0 mm 11.00 W/m2 BKN
19:19 -5.7 °C -11.2 °C 34395 hPa SSW 20.9 km/h 13.2 km/h 54 % 0 mm 7.00 W/m2 BKN
19:24 -5.7 °C -11 °C 34395 hPa SSW 20.9 km/h 17.4 km/h 55 % 0 mm 0.00 W/m2 OVC
19:29 -5.4 °C -10.4 °C 34398.4 hPa SSW 20.9 km/h 8 km/h 57 % 0 mm 0.00 W/m2 OVC
19:34 -5.4 °C -10.2 °C 34398.4 hPa SW 9 km/h   58 % 0 mm 0.00 W/m2 OVC
19:39 -5.7 °C -10.5 °C 34401.8 hPa Calm     58 % 0 mm 0.00 W/m2 CLR
19:44 -6.1 °C -10.7 °C 34405.1 hPa Calm     59 % 0 mm 0.00 W/m2 CLR
19:49 -6.3 °C -10.9 °C 34411.9 hPa Calm     59 % 0 mm 0.00 W/m2 CLR
19:54 -6.7 °C -11 °C 34408.5 hPa Calm     61 % 0 mm 0.00 W/m2 CLR
19:59 -6.7 °C -10.7 °C 34415.3 hPa Calm     63 % 0 mm 0.00 W/m2 CLR
20:04 -7 °C -10.7 °C 34415.3 hPa Calm     65 % 0 mm 0.00 W/m2 CLR
20:09 -7.3 °C -10.9 °C 34422.1 hPa Calm     66 % 0 mm 0.00 W/m2 CLR
20:14 -7.6 °C -10.9 °C 34425.5 hPa SSE 11.9 km/h 0.8 km/h 68 % 0 mm 0.00 W/m2 CLR
20:19 -7.6 °C -10.8 °C 34425.5 hPa SSW 9 km/h   69 % 0 mm 0.00 W/m2 CLR
20:24 -7.6 °C -10.9 °C 34428.8 hPa Calm     68 % 0 mm 0.00 W/m2 CLR
20:29 -7.6 °C -10.9 °C 34428.8 hPa Calm     68 % 0 mm 0.00 W/m2 CLR
20:34 -7.6 °C -10.9 °C 34432.2 hPa Calm     68 % 0 mm 0.00 W/m2 CLR
20:39 -7.6 °C -10.7 °C 34439 hPa Calm     70 % 0 mm 0.00 W/m2 CLR
20:44 -7.9 °C -11 °C 34439 hPa Calm     70 % 0 mm 0.00 W/m2 CLR
20:49 -7.9 °C -10.9 °C 34442.4 hPa Calm     71 % 0 mm 0.00 W/m2 CLR
20:54 -8.2 °C -11.2 °C 34442.4 hPa Calm     71 % 0 mm 0.00 W/m2 CLR
20:59 -8.2 °C -11.3 °C 34445.8 hPa Calm     70 % 0 mm 0.00 W/m2 CLR
21:04 -8.2 °C -11.3 °C 34449.2 hPa Calm     70 % 0 mm 0.00 W/m2 CLR
21:09 -8.5 °C -11.6 °C 34455.9 hPa Calm     70 % 0 mm 0.00 W/m2 CLR
21:14 -8.5 °C -11.8 °C 34452.6 hPa Calm     68 % 0 mm 0.00 W/m2 CLR
21:19 -8.8 °C -12 °C 34452.6 hPa Calm     69 % 0 mm 0.00 W/m2 CLR
21:24 -8.8 °C -12.1 °C 34455.9 hPa Calm     68 % 0 mm 0.00 W/m2 CLR
21:29 -9.1 °C -12.3 °C 34455.9 hPa Calm     69 % 0 mm 0.00 W/m2 CLR
21:34 -9.1 °C -11.9 °C 34455.9 hPa Calm     72 % 0 mm 0.00 W/m2 CLR
21:39 -9.1 °C -11.9 °C 34459.3 hPa Calm     72 % 0 mm 0.00 W/m2 CLR
21:44 -9.1 °C -11.6 °C 34462.7 hPa Calm     75 % 0 mm 0.00 W/m2 CLR
21:49 -9.1 °C -12.2 °C 34466.1 hPa Calm     70 % 0 mm 0.00 W/m2 CLR
21:54 -9.1 °C -12.1 °C 34466.1 hPa Calm     71 % 0 mm 0.00 W/m2 CLR
21:59 -9.4 °C -12.1 °C 34466.1 hPa Calm     73 % 0 mm 0.00 W/m2 CLR
22:04 -9.4 °C -12.1 °C 34469.5 hPa Calm     73 % 0 mm 0.00 W/m2 CLR
22:09 -9.4 °C -11.9 °C 34472.9 hPa Calm     75 % 0 mm 0.00 W/m2 CLR
22:14 -9.8 °C -12 °C 34476.3 hPa Calm     77 % 0 mm 0.00 W/m2 CLR
22:19 -9.8 °C -12.3 °C 34472.9 hPa Calm     74 % 0 mm 0.00 W/m2 CLR
22:24 -9.8 °C -12.2 °C 34476.3 hPa Calm     75 % 0 mm 0.00 W/m2 CLR
22:29 -9.8 °C -12.2 °C 34479.6 hPa Calm     75 % 0 mm 0.00 W/m2 CLR
22:34 -9.8 °C -12.2 °C 34483 hPa Calm     75 % 0 mm 0.00 W/m2 CLR
22:39 -9.8 °C -12.1 °C 34486.4 hPa Calm     76 % 0 mm 0.00 W/m2 CLR
22:44 -9.8 °C -12 °C 34489.8 hPa Calm     77 % 0 mm 0.00 W/m2 CLR
22:49 -10.1 °C -12.4 °C 34493.2 hPa Calm     75 % 0 mm 0.00 W/m2 CLR
22:54 -10.1 °C -12.4 °C 34496.6 hPa Calm     75 % 0 mm 0.00 W/m2 CLR
22:59 -10.1 °C -12.4 °C 34496.6 hPa Calm     76 % 0 mm 0.00 W/m2 CLR
23:04 -10.1 °C -12.4 °C 34496.6 hPa Calm     76 % 0 mm 0.00 W/m2 CLR
23:09 -10.1 °C -12.3 °C 34500 hPa Calm     77 % 0 mm 0.00 W/m2 CLR
23:14 -9.8 °C -12.1 °C 34506.7 hPa Calm     76 % 0 mm 0.00 W/m2 CLR
23:19 -9.8 °C -11.8 °C 34506.7 hPa Calm     78 % 0 mm 0.00 W/m2 CLR
23:24 -9.8 °C -12 °C 34503.3 hPa Calm     77 % 0 mm 0.00 W/m2 CLR
23:29 -9.8 °C -11.8 °C 34506.7 hPa Calm     78 % 0 mm 0.00 W/m2 CLR
23:34 -9.8 °C -11.8 °C 34506.7 hPa Calm     78 % 0 mm 0.00 W/m2 CLR
23:39 -9.4 °C -11.6 °C 34510.1 hPa Calm     78 % 0 mm 0.00 W/m2 CLR
23:44 -9.4 °C -11.7 °C 34510.1 hPa Calm     77 % 0 mm 0.00 W/m2 CLR
23:49 -9.4 °C -11.7 °C 34506.7 hPa Calm     77 % 0 mm 0.00 W/m2 CLR
23:54 -9.8 °C -11.8 °C 34510.1 hPa Calm     78 % 0 mm 0.00 W/m2 CLR
23:59 -9.8 °C -11.8 °C 34510.1 hPa Calm     78 % 0 mm 0.00 W/m2 CLR
Lo Temps de Massalio
Compliments of Weather Underground - 1.25 mb